createdAt,value
2017-09-25T00:00:51.220Z,17.62
2017-09-25T00:02:01.252Z,17.69
2017-09-25T00:03:11.324Z,17.68
2017-09-25T00:04:21.673Z,17.71
2017-09-25T00:05:32.024Z,17.71
2017-09-25T00:06:42.051Z,17.69
2017-09-25T00:07:52.402Z,17.66
2017-09-25T00:09:02.765Z,17.65
2017-09-25T00:10:12.810Z,17.73
2017-09-25T00:11:22.839Z,17.65
2017-09-25T00:12:33.203Z,17.71
2017-09-25T00:13:43.541Z,17.65
2017-09-25T00:14:53.884Z,17.66
2017-09-25T00:16:04.245Z,17.63
2017-09-25T00:17:14.591Z,17.49
2017-09-25T00:18:24.988Z,17.5
2017-09-25T00:19:35.006Z,17.55
2017-09-25T00:20:45.042Z,17.5
2017-09-25T00:21:55.373Z,17.54
2017-09-25T00:23:05.415Z,17.52
2017-09-25T00:24:15.763Z,17.57
2017-09-25T00:25:26.113Z,17.52
2017-09-25T00:26:36.474Z,17.46
2017-09-25T00:27:46.497Z,17.55
2017-09-25T00:28:56.228Z,17.54
2017-09-25T00:30:06.785Z,17.57
2017-09-25T00:31:17.163Z,17.57
2017-09-25T00:32:27.523Z,17.6
2017-09-25T00:33:37.553Z,17.54
2017-09-25T00:34:47.579Z,17.55
2017-09-25T00:35:57.952Z,17.55
2017-09-25T00:37:07.997Z,17.66
2017-09-25T00:38:18.344Z,17.55
2017-09-25T00:39:28.694Z,17.5
2017-09-25T00:40:39.060Z,17.5
2017-09-25T00:41:49.086Z,17.49
2017-09-25T00:42:59.420Z,17.55
2017-09-25T00:44:09.772Z,17.55
2017-09-25T00:45:20.124Z,17.58
2017-09-25T00:46:30.171Z,17.52
2017-09-25T00:47:40.510Z,17.52
2017-09-25T00:48:50.861Z,17.55
2017-09-25T00:50:01.203Z,17.58
2017-09-25T00:51:11.260Z,17.62
2017-09-25T00:52:21.289Z,17.5
2017-09-25T00:53:31.051Z,17.47
2017-09-25T00:54:41.389Z,17.55
2017-09-25T00:55:51.743Z,17.57
2017-09-25T00:57:01.786Z,17.49
2017-09-25T00:58:12.137Z,17.55
2017-09-25T00:59:22.200Z,17.52
2017-09-25T01:00:31.922Z,17.55
2017-09-25T01:01:41.949Z,17.52
2017-09-25T01:02:52.302Z,17.57
2017-09-25T01:04:02.637Z,17.52
2017-09-25T01:05:12.997Z,17.55
2017-09-25T01:06:23.049Z,17.5
2017-09-25T01:07:33.394Z,17.52
2017-09-25T01:08:43.417Z,17.57
2017-09-25T01:09:53.760Z,17.54
2017-09-25T01:11:04.158Z,17.52
2017-09-25T01:12:14.494Z,17.52
2017-09-25T01:13:24.841Z,17.5
2017-09-25T01:14:34.873Z,17.5
2017-09-25T01:15:44.919Z,17.54
2017-09-25T01:16:54.947Z,17.5
2017-09-25T01:18:05.302Z,17.55
2017-09-25T01:19:15.662Z,17.45
2017-09-25T01:20:26.005Z,17.5
2017-09-25T01:21:36.023Z,17.5
2017-09-25T01:22:45.745Z,17.49
2017-09-25T01:23:55.773Z,17.43
2017-09-25T01:25:06.130Z,17.47
2017-09-25T01:26:16.482Z,17.5
2017-09-25T01:27:26.831Z,17.52
2017-09-25T01:28:37.219Z,17.46
2017-09-25T01:29:46.942Z,17.45
2017-09-25T01:30:57.276Z,17.47
2017-09-25T01:32:07.619Z,17.42
2017-09-25T01:33:17.956Z,17.5
2017-09-25T01:34:28.362Z,17.47
2017-09-25T01:35:38.718Z,17.42
2017-09-25T01:36:49.052Z,17.4
2017-09-25T01:37:59.077Z,17.42
2017-09-25T01:39:09.428Z,17.47
2017-09-25T01:40:19.450Z,17.4
2017-09-25T01:41:29.160Z,17.39
2017-09-25T01:42:39.509Z,17.36
2017-09-25T01:43:49.865Z,17.32
2017-09-25T01:45:00.220Z,17.42
2017-09-25T01:46:10.249Z,17.43
2017-09-25T01:47:20.586Z,17.42
2017-09-25T01:48:30.933Z,17.45
2017-09-25T01:49:41.281Z,17.52
2017-09-25T01:50:50.987Z,17.47
2017-09-25T01:52:01.049Z,17.47
2017-09-25T01:53:11.092Z,17.47
2017-09-25T01:54:21.116Z,17.54
2017-09-25T01:55:31.450Z,17.54
2017-09-25T01:56:41.805Z,17.49
2017-09-25T01:57:52.204Z,17.42
2017-09-25T01:59:02.541Z,17.49
2017-09-25T02:00:12.571Z,17.46
2017-09-25T02:01:22.608Z,17.45
2017-09-25T02:02:32.634Z,17.49
2017-09-25T02:03:42.726Z,17.45
2017-09-25T02:04:53.087Z,17.38
2017-09-25T02:06:03.444Z,17.35
2017-09-25T02:07:13.791Z,17.36
2017-09-25T02:08:23.835Z,17.31
2017-09-25T02:09:34.189Z,17.35
2017-09-25T02:10:44.228Z,17.28
2017-09-25T02:11:54.582Z,17.31
2017-09-25T02:13:04.618Z,17.31
2017-09-25T02:14:14.966Z,17.31
2017-09-25T02:15:25.328Z,17.31
2017-09-25T02:16:35.381Z,17.28
2017-09-25T02:17:45.718Z,17.28
2017-09-25T02:18:55.753Z,17.35
2017-09-25T02:20:06.092Z,17.3
2017-09-25T02:21:16.440Z,17.22
2017-09-25T02:22:26.789Z,17.18
2017-09-25T02:23:37.150Z,17.27
2017-09-25T02:24:47.163Z,17.22
2017-09-25T02:25:57.513Z,17.24
2017-09-25T02:27:07.923Z,17.17
2017-09-25T02:28:17.956Z,17.07
2017-09-25T02:29:28.288Z,17.1
2017-09-25T02:30:38.007Z,17.12
2017-09-25T02:31:48.373Z,17.21
2017-09-25T02:32:58.780Z,17.15
2017-09-25T02:34:09.130Z,17.15
2017-09-25T02:35:18.844Z,17.18
2017-09-25T02:36:29.197Z,17.17
2017-09-25T02:37:39.554Z,17.18
2017-09-25T02:38:49.961Z,17.1
2017-09-25T02:40:00.287Z,17.25
2017-09-25T02:41:10.638Z,17.15
2017-09-25T02:42:20.357Z,17.13
2017-09-25T02:43:30.702Z,17.1
2017-09-25T02:44:41.093Z,17.12
2017-09-25T02:45:51.461Z,17.2
2017-09-25T02:47:01.823Z,17.22
2017-09-25T02:48:12.173Z,17.24
2017-09-25T02:49:22.522Z,17.09
2017-09-25T02:50:32.919Z,17.22
2017-09-25T02:51:43.283Z,17.2
2017-09-25T02:52:53.633Z,17.31
2017-09-25T02:54:03.992Z,17.22
2017-09-25T02:55:14.339Z,17.32
2017-09-25T02:56:24.695Z,17.24
2017-09-25T02:57:35.034Z,17.35
2017-09-25T02:58:45.381Z,17.36
2017-09-25T02:59:55.731Z,17.22
2017-09-25T03:01:05.758Z,17.21
2017-09-25T03:02:16.120Z,17.28
2017-09-25T03:33:40.706Z,14.46
2017-09-25T03:34:51.038Z,14.52
2017-09-25T03:36:00.737Z,14.45
2017-09-25T03:37:11.068Z,14.48
2017-09-25T03:38:21.094Z,14.51
2017-09-25T03:39:31.422Z,14.67
2017-09-25T03:40:41.787Z,14.63
2017-09-25T03:41:52.123Z,14.79
2017-09-25T03:43:01.850Z,14.98
2017-09-25T03:44:11.873Z,15.1
2017-09-25T03:45:21.974Z,15.26
2017-09-25T03:46:32.331Z,15.35
2017-09-25T03:47:42.679Z,15.55
2017-09-25T03:48:53.020Z,15.65
2017-09-25T03:50:03.051Z,15.81
2017-09-25T03:51:13.130Z,15.84
2017-09-25T03:52:23.477Z,15.99
2017-09-25T03:53:33.816Z,16.16
2017-09-25T03:54:44.163Z,16.27
2017-09-25T03:55:54.741Z,16.39
2017-09-25T03:57:05.094Z,16.47
2017-09-25T03:58:15.457Z,16.49
2017-09-25T03:59:25.798Z,16.58
2017-09-25T04:00:35.828Z,16.63
2017-09-25T04:01:46.175Z,16.73
2017-09-25T04:02:56.586Z,16.84
2017-09-25T04:04:06.923Z,16.92
2017-09-25T04:05:17.275Z,16.92
2017-09-25T04:06:27.663Z,17
2017-09-25T04:07:37.999Z,17.1
2017-09-25T04:08:48.390Z,17.09
2017-09-25T04:09:58.101Z,17.15
2017-09-25T04:11:08.129Z,17.21
2017-09-25T04:12:18.506Z,17.1
2017-09-25T04:13:28.872Z,17.12
2017-09-25T04:14:38.959Z,17.09
2017-09-25T04:15:49.365Z,17.25
2017-09-25T04:16:59.396Z,17.18
2017-09-25T04:18:09.764Z,17.28
2017-09-25T04:19:20.096Z,17.24
2017-09-25T04:20:30.508Z,17.32
2017-09-25T04:21:40.537Z,17.35
2017-09-25T04:22:50.881Z,17.31
2017-09-25T04:24:01.234Z,17.32
2017-09-25T04:25:11.608Z,17.38
2017-09-25T04:26:21.997Z,17.32
2017-09-25T04:27:32.349Z,17.4
2017-09-25T04:28:42.379Z,17.38
2017-09-25T04:29:52.726Z,17.45
2017-09-25T04:31:03.083Z,17.38
2017-09-25T04:32:13.450Z,17.49
2017-09-25T04:33:23.820Z,17.57
2017-09-25T04:34:34.166Z,17.58
2017-09-25T04:35:44.507Z,17.57
2017-09-25T04:36:54.862Z,17.54
2017-09-25T04:38:04.937Z,17.54
2017-09-25T04:39:14.979Z,17.52
2017-09-25T04:40:25.014Z,17.57
2017-09-25T04:41:35.359Z,17.58
2017-09-25T04:42:45.699Z,17.55
2017-09-25T04:43:55.453Z,17.5
2017-09-25T04:45:05.809Z,17.55
2017-09-25T04:46:15.962Z,17.55
2017-09-25T04:47:26.000Z,17.52
2017-09-25T04:48:36.030Z,17.55
2017-09-25T04:49:46.397Z,17.5
2017-09-25T04:50:56.749Z,17.55
2017-09-25T04:52:07.106Z,17.54
2017-09-25T04:53:17.451Z,17.52
2017-09-25T04:54:27.473Z,17.5
2017-09-25T04:55:37.828Z,17.55
2017-09-25T04:56:48.179Z,17.6
2017-09-25T04:57:58.203Z,17.49
2017-09-25T04:59:07.940Z,17.49
2017-09-25T05:00:17.977Z,17.46
2017-09-25T05:01:29.625Z,17.45
2017-09-25T05:02:39.962Z,17.43
2017-09-25T05:03:50.303Z,17.47
2017-09-25T05:05:00.654Z,17.43
2017-09-25T05:06:11.021Z,17.39
2017-09-25T05:07:21.489Z,17.42
2017-09-25T05:08:31.831Z,17.39
2017-09-25T05:09:42.183Z,17.4
2017-09-25T05:10:52.524Z,17.3
2017-09-25T05:12:02.236Z,17.4
2017-09-25T05:13:12.308Z,17.32
2017-09-25T05:14:22.344Z,17.31
2017-09-25T05:15:32.691Z,17.36
2017-09-25T05:16:43.038Z,17.31
2017-09-25T05:17:53.388Z,17.31
2017-09-25T05:19:03.784Z,17.28
2017-09-25T05:20:14.123Z,17.31
2017-09-25T05:21:24.467Z,17.32
2017-09-25T05:22:34.821Z,17.31
2017-09-25T05:23:44.869Z,17.24
2017-09-25T05:24:55.236Z,17.31
2017-09-25T05:26:05.253Z,17.3
2017-09-25T05:27:15.609Z,17.25
2017-09-25T05:28:26.916Z,17.35
2017-09-25T05:29:37.308Z,17.31
2017-09-25T05:30:47.343Z,17.32
2017-09-25T05:31:57.721Z,17.35
2017-09-25T05:33:08.081Z,17.36
2017-09-25T05:34:18.436Z,17.45
2017-09-25T05:35:28.142Z,17.4
2017-09-25T05:36:38.181Z,17.36
2017-09-25T05:37:48.545Z,17.38
2017-09-25T05:38:58.890Z,17.43
2017-09-25T05:40:09.237Z,17.38
2017-09-25T05:41:19.277Z,17.42
2017-09-25T05:42:29.637Z,17.43
2017-09-25T05:43:39.993Z,17.47
2017-09-25T05:44:50.340Z,17.57
2017-09-25T05:46:00.059Z,17.54
2017-09-25T05:47:10.423Z,17.55
2017-09-25T05:48:20.784Z,17.49
2017-09-25T05:49:31.130Z,17.52
2017-09-25T05:50:42.038Z,17.49
2017-09-25T05:51:52.395Z,17.66
2017-09-25T05:53:02.432Z,17.66
2017-09-25T05:54:12.484Z,17.69
2017-09-25T05:55:22.510Z,17.73
2017-09-25T05:56:32.597Z,17.69
2017-09-25T05:57:42.314Z,17.76
2017-09-25T05:58:52.671Z,17.8
2017-09-25T06:00:03.028Z,17.83
2017-09-25T06:01:12.415Z,17.88
2017-09-25T06:02:22.752Z,17.92
2017-09-25T06:03:32.766Z,17.92
2017-09-25T06:04:43.900Z,18.06
2017-09-25T06:05:53.935Z,18.03
2017-09-25T06:07:04.286Z,18.08
2017-09-25T06:08:14.685Z,18.05
2017-09-25T06:09:25.031Z,18.16
2017-09-25T06:10:34.745Z,18.19
2017-09-25T06:11:45.089Z,18.2
2017-09-25T06:12:55.118Z,18.11
2017-09-25T06:14:05.534Z,18.26
2017-09-25T06:15:15.891Z,18.19
2017-09-25T06:16:26.227Z,18.13
2017-09-25T06:17:36.266Z,18.19
2017-09-25T06:18:46.311Z,18.19
2017-09-25T06:19:56.653Z,18.27
2017-09-25T06:21:06.694Z,18.29
2017-09-25T06:22:16.726Z,18.31
2017-09-25T06:23:27.069Z,18.44
2017-09-25T06:24:37.416Z,18.42
2017-09-25T06:25:47.438Z,18.44
2017-09-25T06:26:57.788Z,18.53
2017-09-25T06:28:07.824Z,18.56
2017-09-25T06:29:18.158Z,18.51
2017-09-25T06:30:28.170Z,18.59
2017-09-25T06:31:38.196Z,18.53
2017-09-25T06:32:48.217Z,18.56
2017-09-25T06:33:58.579Z,18.51
2017-09-25T06:35:08.604Z,18.63
2017-09-25T06:36:18.952Z,18.63
2017-09-25T06:37:29.350Z,18.63
2017-09-25T06:38:39.398Z,18.66
2017-09-25T06:39:49.770Z,18.75
2017-09-25T06:40:59.499Z,18.76
2017-09-25T06:42:09.847Z,18.86
2017-09-25T06:43:19.878Z,18.84
2017-09-25T06:44:30.240Z,18.93
2017-09-25T06:45:40.582Z,18.86
2017-09-25T06:46:50.920Z,18.99
2017-09-25T06:48:01.263Z,19.15
2017-09-25T06:49:11.597Z,19.1
2017-09-25T06:50:21.933Z,19.09
2017-09-25T06:51:32.281Z,19.16
2017-09-25T06:52:42.684Z,19.15
2017-09-25T06:53:52.705Z,19.19
2017-09-25T06:55:03.066Z,19.24
2017-09-25T06:56:12.773Z,19.3
2017-09-25T06:57:23.115Z,19.31
2017-09-25T06:58:33.470Z,19.34
2017-09-25T06:59:43.819Z,19.35
2017-09-25T07:00:54.165Z,19.43
2017-09-25T07:02:04.528Z,19.45
2017-09-25T07:03:15.078Z,19.45
2017-09-25T07:04:25.491Z,19.49
2017-09-25T07:05:35.892Z,19.42
2017-09-25T07:06:45.937Z,19.55
2017-09-25T07:07:56.288Z,19.53
2017-09-25T07:09:07.514Z,19.55
2017-09-25T07:10:17.953Z,19.56
2017-09-25T07:11:28.023Z,19.52
2017-09-25T07:12:38.371Z,19.56
2017-09-25T07:13:48.431Z,19.47
2017-09-25T07:14:58.769Z,19.45
2017-09-25T07:16:09.171Z,19.35
2017-09-25T07:17:19.519Z,19.32
2017-09-25T07:18:29.893Z,19.37
2017-09-25T07:19:39.917Z,19.45
2017-09-25T07:20:50.248Z,19.42
2017-09-25T07:22:00.646Z,19.4
2017-09-25T07:23:10.999Z,19.46
2017-09-25T07:24:21.351Z,19.46
2017-09-25T07:25:31.724Z,19.52
2017-09-25T07:26:42.067Z,19.52
2017-09-25T07:27:52.462Z,19.64
2017-09-25T07:29:02.853Z,19.65
2017-09-25T07:30:13.209Z,19.74
2017-09-25T07:31:23.544Z,19.75
2017-09-25T07:32:33.898Z,19.72
2017-09-25T07:33:44.338Z,19.82
2017-09-25T07:34:54.686Z,19.8
2017-09-25T07:36:05.044Z,19.74
2017-09-25T07:37:15.403Z,19.82
2017-09-25T07:38:25.746Z,19.83
2017-09-25T07:39:36.099Z,19.78
2017-09-25T07:40:46.128Z,19.74
2017-09-25T07:41:56.158Z,19.75
2017-09-25T07:43:06.217Z,19.75
2017-09-25T07:44:16.555Z,19.75
2017-09-25T07:45:26.903Z,19.8
2017-09-25T07:46:37.259Z,19.9
2017-09-25T07:47:47.609Z,19.9
2017-09-25T07:48:57.954Z,19.97
2017-09-25T07:50:08.406Z,20.01
2017-09-25T07:51:18.815Z,20.05
2017-09-25T07:52:29.145Z,20.16
2017-09-25T07:53:39.499Z,20.16
2017-09-25T07:54:49.833Z,20.27
2017-09-25T07:55:59.537Z,20.35
2017-09-25T07:57:09.893Z,20.32
2017-09-25T07:58:19.604Z,20.37
2017-09-25T07:59:29.952Z,20.49
2017-09-25T08:00:40.299Z,20.48
2017-09-25T08:01:50.656Z,20.49
2017-09-25T08:03:01.008Z,20.48
2017-09-25T08:04:11.358Z,20.48
2017-09-25T08:05:21.707Z,20.42
2017-09-25T08:06:31.741Z,20.48
2017-09-25T08:07:42.080Z,20.53
2017-09-25T08:08:52.105Z,20.61
2017-09-25T08:10:02.452Z,20.71
2017-09-25T08:11:12.808Z,20.85
2017-09-25T08:12:23.162Z,20.85
2017-09-25T08:13:33.495Z,20.91
2017-09-25T08:14:43.915Z,21
2017-09-25T08:15:54.257Z,21.03
2017-09-25T08:17:04.613Z,21.12
2017-09-25T08:18:14.665Z,21.23
2017-09-25T08:19:25.022Z,21.27
2017-09-25T08:20:35.413Z,21.37
2017-09-25T08:21:45.448Z,21.38
2017-09-25T08:22:55.801Z,21.43
2017-09-25T08:24:06.144Z,21.53
2017-09-25T08:25:16.522Z,21.64
2017-09-25T08:26:26.604Z,21.77
2017-09-25T08:27:36.953Z,21.82
2017-09-25T08:28:47.305Z,21.86
2017-09-25T08:29:57.657Z,21.85
2017-09-25T08:31:07.379Z,21.85
2017-09-25T08:32:17.726Z,21.99
2017-09-25T08:33:28.078Z,22.02
2017-09-25T08:34:38.810Z,22.16
2017-09-25T08:35:49.200Z,22.23
2017-09-25T08:36:59.393Z,22.33
2017-09-25T08:38:09.805Z,22.54
2017-09-25T08:39:20.150Z,22.75
2017-09-25T08:40:31.763Z,22.92
2017-09-25T08:41:41.801Z,23.09
2017-09-25T08:42:51.823Z,23.22
2017-09-25T08:44:01.898Z,23.41
2017-09-25T08:45:11.917Z,23.4
2017-09-25T08:46:21.951Z,23.37
2017-09-25T08:47:32.298Z,23.45
2017-09-25T08:48:42.652Z,23.52
2017-09-25T08:49:53.049Z,23.6
2017-09-25T08:51:02.775Z,23.5
2017-09-25T08:52:13.116Z,23.52
2017-09-25T08:53:23.453Z,23.6
2017-09-25T08:54:33.795Z,23.74
2017-09-25T08:55:43.867Z,23.67
2017-09-25T08:56:54.213Z,23.78
2017-09-25T08:58:04.236Z,24.02
2017-09-25T08:59:14.286Z,24.12
2017-09-25T09:00:24.327Z,24.17
2017-09-25T09:01:34.729Z,24.33
2017-09-25T09:02:45.081Z,24.32
2017-09-25T09:03:55.433Z,24.33
2017-09-25T09:05:05.794Z,24.36
2017-09-25T09:06:15.510Z,24.29
2017-09-25T09:07:25.871Z,24.33
2017-09-25T09:08:37.345Z,24.49
2017-09-25T09:09:47.378Z,24.56
2017-09-25T09:10:57.734Z,24.66
2017-09-25T09:12:08.088Z,24.75
2017-09-25T09:13:18.132Z,24.7
2017-09-25T09:14:28.484Z,24.52
2017-09-25T09:15:38.836Z,24.46
2017-09-25T09:16:48.906Z,24.46
2017-09-25T09:18:00.054Z,24.51
2017-09-25T09:19:10.456Z,24.51
2017-09-25T09:20:20.841Z,24.55
2017-09-25T09:21:31.189Z,24.46
2017-09-25T09:22:41.222Z,24.46
2017-09-25T09:23:51.254Z,24.44
2017-09-25T09:25:01.657Z,24.34
2017-09-25T09:26:12.002Z,24.44
2017-09-25T09:27:22.357Z,24.36
2017-09-25T09:28:32.740Z,24.34
2017-09-25T09:29:43.080Z,24.29
2017-09-25T09:30:53.482Z,24.37
2017-09-25T09:32:03.826Z,24.67
2017-09-25T09:33:13.890Z,24.86
2017-09-25T09:34:23.933Z,25.05
2017-09-25T09:35:33.985Z,25.11
2017-09-25T09:36:44.032Z,25.34
2017-09-25T09:37:54.395Z,25.14
2017-09-25T09:39:04.786Z,25.05
2017-09-25T09:40:14.832Z,25.22
2017-09-25T09:41:24.869Z,25.52
2017-09-25T09:42:35.282Z,25.45
2017-09-25T09:43:45.337Z,25.48
2017-09-25T09:44:55.374Z,25.27
2017-09-25T09:46:05.741Z,25.04
2017-09-25T09:47:16.985Z,25.15
2017-09-25T09:48:27.293Z,25.57
2017-09-25T09:49:37.349Z,25.88
2017-09-25T09:50:47.704Z,26.03
2017-09-25T09:51:58.068Z,26.16
2017-09-25T09:53:08.434Z,26.3
2017-09-25T09:54:18.915Z,25.96
2017-09-25T09:55:29.304Z,25.57
2017-09-25T09:56:40.267Z,25.33
2017-09-25T09:57:50.313Z,25
2017-09-25T09:59:00.676Z,24.8
2017-09-25T10:00:10.766Z,24.56
2017-09-25T10:01:20.822Z,24.29
2017-09-25T10:02:31.179Z,24.15
2017-09-25T10:03:41.546Z,24.29
2017-09-25T10:04:53.025Z,24.42
2017-09-25T10:06:03.115Z,24.71
2017-09-25T10:07:13.461Z,24.75
2017-09-25T10:08:23.503Z,24.66
2017-09-25T10:09:33.851Z,24.71
2017-09-25T10:10:43.883Z,24.77
2017-09-25T10:11:54.304Z,24.67
2017-09-25T10:13:04.326Z,24.89
2017-09-25T10:14:14.369Z,25.09
2017-09-25T10:15:24.725Z,25.19
2017-09-25T10:16:35.089Z,24.86
2017-09-25T10:17:45.514Z,24.61
2017-09-25T10:18:55.225Z,24.49
2017-09-25T10:20:04.979Z,24.52
2017-09-25T10:21:15.006Z,24.56
2017-09-25T10:22:25.053Z,24.7
2017-09-25T10:23:35.457Z,24.77
2017-09-25T10:24:45.816Z,24.8
2017-09-25T10:25:56.199Z,24.87
2017-09-25T10:27:06.557Z,25.09
2017-09-25T10:28:16.906Z,25.3
2017-09-25T10:29:27.333Z,25.64
2017-09-25T10:30:37.686Z,25.7
2017-09-25T10:31:48.051Z,25.59
2017-09-25T10:33:00.108Z,25.74
2017-09-25T10:34:13.380Z,25.6
2017-09-25T10:35:23.772Z,25.69
2017-09-25T10:36:34.138Z,25.62
2017-09-25T10:37:44.501Z,25.41
2017-09-25T10:38:54.558Z,25.23
2017-09-25T10:40:04.913Z,24.86
2017-09-25T10:41:15.341Z,24.45
2017-09-25T10:42:25.396Z,24.21
2017-09-25T10:43:35.756Z,24.45
2017-09-25T10:44:45.830Z,24.58
2017-09-25T10:45:56.191Z,24.64
2017-09-25T10:47:06.325Z,24.93
2017-09-25T10:48:16.696Z,25.04
2017-09-25T10:49:27.045Z,25.11
2017-09-25T10:50:37.396Z,25.34
2017-09-25T10:51:47.736Z,25.44
2017-09-25T10:52:58.128Z,25.51
2017-09-25T10:54:08.497Z,25.57
2017-09-25T10:55:18.853Z,25.27
2017-09-25T10:56:29.195Z,24.83
2017-09-25T10:57:39.553Z,24.61
2017-09-25T10:58:49.636Z,24.3
2017-09-25T10:59:59.994Z,24.07
2017-09-25T11:01:10.030Z,23.89
2017-09-25T11:02:20.388Z,23.7
2017-09-25T11:03:30.430Z,23.7
2017-09-25T11:04:40.775Z,23.66
2017-09-25T11:05:51.146Z,23.63
2017-09-25T11:07:01.182Z,23.52
2017-09-25T11:08:11.576Z,23.52
2017-09-25T11:09:21.914Z,23.47
2017-09-25T11:10:32.270Z,23.35
2017-09-25T11:11:42.633Z,23.45
2017-09-25T11:12:53.018Z,23.56
2017-09-25T11:14:03.386Z,23.66
2017-09-25T11:15:13.736Z,23.75
2017-09-25T11:16:24.095Z,23.71
2017-09-25T11:17:35.060Z,23.77
2017-09-25T11:18:45.426Z,23.77
2017-09-25T11:19:55.771Z,23.77
2017-09-25T11:21:06.122Z,23.71
2017-09-25T11:22:16.468Z,23.6
2017-09-25T11:23:26.497Z,23.57
2017-09-25T11:24:36.852Z,23.48
2017-09-25T11:25:47.188Z,23.53
2017-09-25T11:26:57.213Z,23.56
2017-09-25T11:28:07.595Z,23.63
2017-09-25T11:29:17.640Z,23.62
2017-09-25T11:30:27.671Z,23.78
2017-09-25T11:31:38.040Z,23.82
2017-09-25T11:32:48.406Z,23.9
2017-09-25T11:33:58.496Z,24.14
2017-09-25T11:35:08.546Z,24.7
2017-09-25T11:36:18.911Z,25.05
2017-09-25T11:37:28.960Z,25.38
2017-09-25T11:38:39.323Z,25.93
2017-09-25T11:39:49.664Z,26.41
2017-09-25T11:40:59.399Z,26.42
2017-09-25T11:42:09.763Z,26.22
2017-09-25T11:43:19.794Z,26.27
2017-09-25T11:44:30.153Z,26.26
2017-09-25T11:45:40.188Z,25.81
2017-09-25T11:46:50.569Z,25.34
2017-09-25T11:48:00.586Z,24.9
2017-09-25T11:49:10.944Z,25.04
2017-09-25T11:50:20.995Z,25.19
2017-09-25T11:51:31.399Z,24.96
2017-09-25T11:52:41.425Z,24.56
2017-09-25T11:53:51.445Z,24.34
2017-09-25T11:55:01.490Z,24.44
2017-09-25T11:56:11.854Z,24.44
2017-09-25T11:57:22.249Z,24.7
2017-09-25T11:58:32.579Z,25.11
2017-09-25T11:59:43.753Z,25.04
2017-09-25T12:00:53.485Z,24.75
2017-09-25T12:02:04.089Z,24.51
2017-09-25T12:03:14.124Z,24.44
2017-09-25T12:04:24.495Z,24.33
2017-09-25T12:05:34.832Z,24.58
2017-09-25T12:06:45.186Z,25.05
2017-09-25T12:07:55.530Z,25.22
2017-09-25T12:09:05.927Z,25.01
2017-09-25T12:10:15.970Z,25.15
2017-09-25T12:11:26.328Z,25
2017-09-25T12:12:36.358Z,24.89
2017-09-25T12:13:46.725Z,24.67
2017-09-25T12:14:57.117Z,24.45
2017-09-25T12:16:07.467Z,24.32
2017-09-25T12:17:17.822Z,24.32
2017-09-25T12:18:28.184Z,24.32
2017-09-25T12:19:38.525Z,24.37
2017-09-25T12:20:48.576Z,24.46
2017-09-25T12:21:58.947Z,24.78
2017-09-25T12:23:09.298Z,24.74
2017-09-25T12:24:19.337Z,24.8
2017-09-25T12:25:29.678Z,24.77
2017-09-25T12:26:39.771Z,25.02
2017-09-25T12:27:49.478Z,25.2
2017-09-25T12:28:59.824Z,24.92
2017-09-25T12:30:10.180Z,24.69
2017-09-25T12:31:20.516Z,24.48
2017-09-25T12:32:30.914Z,24.29
2017-09-25T12:33:41.287Z,24.09
2017-09-25T12:34:51.624Z,23.92
2017-09-25T12:36:01.664Z,23.89
2017-09-25T12:37:12.011Z,23.9
2017-09-25T12:38:22.089Z,23.96
2017-09-25T12:39:32.464Z,23.97
2017-09-25T12:40:42.499Z,24.02
2017-09-25T12:41:52.526Z,24.02
2017-09-25T12:43:02.875Z,24
2017-09-25T12:44:12.615Z,24.03
2017-09-25T12:45:22.978Z,24.14
2017-09-25T12:46:33.008Z,24.15
2017-09-25T12:47:43.342Z,24.37
2017-09-25T12:48:53.693Z,24.44
2017-09-25T12:50:03.781Z,24.37
2017-09-25T12:51:14.130Z,24.34
2017-09-25T12:52:24.488Z,24.33
2017-09-25T12:53:34.517Z,24.56
2017-09-25T12:54:45.122Z,24.89
2017-09-25T12:55:55.487Z,25.02
2017-09-25T12:57:05.524Z,24.87
2017-09-25T12:58:15.559Z,24.85
2017-09-25T12:59:25.915Z,24.82
2017-09-25T13:00:36.272Z,24.75
2017-09-25T13:01:46.357Z,24.63
2017-09-25T13:02:56.700Z,24.34
2017-09-25T13:04:06.736Z,24.29
2017-09-25T13:05:17.090Z,24.18
2017-09-25T13:06:27.453Z,24.17
2017-09-25T13:07:37.849Z,24
2017-09-25T13:08:48.200Z,24
2017-09-25T13:09:58.551Z,24.02
2017-09-25T13:11:08.587Z,24.03
2017-09-25T13:12:18.943Z,23.94
2017-09-25T13:13:29.050Z,23.96
2017-09-25T13:14:39.088Z,24.02
2017-09-25T13:15:49.428Z,24.19
2017-09-25T13:16:59.472Z,24.36
2017-09-25T13:18:09.518Z,24.48
2017-09-25T13:19:19.545Z,24.26
2017-09-25T13:20:29.894Z,24.56
2017-09-25T13:21:39.936Z,24.7
2017-09-25T13:22:50.295Z,24.8
2017-09-25T13:24:00.656Z,24.78
2017-09-25T13:25:11.111Z,24.75
2017-09-25T13:26:21.486Z,24.44
2017-09-25T13:27:31.830Z,24.11
2017-09-25T13:28:41.867Z,24.12
2017-09-25T13:29:52.259Z,24.32
2017-09-25T13:31:02.342Z,24.12
2017-09-25T13:32:12.379Z,24.04
2017-09-25T13:33:22.439Z,24.17
2017-09-25T13:34:32.777Z,24.04
2017-09-25T13:35:43.128Z,23.97
2017-09-25T13:36:53.164Z,23.93
2017-09-25T13:38:03.511Z,24.02
2017-09-25T13:39:13.878Z,23.94
2017-09-25T13:40:24.226Z,24.11
2017-09-25T13:41:34.579Z,24.12
2017-09-25T13:42:44.678Z,23.96
2017-09-25T13:43:55.021Z,23.9
2017-09-25T13:45:05.387Z,23.84
2017-09-25T13:46:15.423Z,23.81
2017-09-25T13:47:25.773Z,23.81
2017-09-25T13:48:36.215Z,23.87
2017-09-25T13:49:46.584Z,23.79
2017-09-25T13:50:56.956Z,23.59
2017-09-25T13:52:07.000Z,23.52
2017-09-25T13:53:17.035Z,23.4
2017-09-25T13:54:27.459Z,23.53
2017-09-25T13:55:37.807Z,23.66
2017-09-25T13:56:48.162Z,23.6
2017-09-25T13:57:58.520Z,23.64
2017-09-25T14:02:57.746Z,22.96
2017-09-25T14:04:07.799Z,22.94
2017-09-25T14:05:17.942Z,22.92
2017-09-25T14:06:28.447Z,23.03
2017-09-25T14:07:38.905Z,23.21
2017-09-25T14:11:15.358Z,23.14
2017-09-25T14:12:25.735Z,23.1
2017-09-25T14:13:35.763Z,22.88
2017-09-25T14:14:45.790Z,22.91
2017-09-25T14:15:56.194Z,22.7
2017-09-25T14:17:06.567Z,22.64
2017-09-25T14:18:16.926Z,22.52
2017-09-25T14:19:26.636Z,22.67
2017-09-25T14:20:36.986Z,22.92
2017-09-25T14:21:47.354Z,23.06
2017-09-25T14:22:57.440Z,23.21
2017-09-25T14:24:07.837Z,23.32
2017-09-25T14:25:18.196Z,23.38
2017-09-25T14:26:28.544Z,23.38
2017-09-25T14:27:39.758Z,23.38
2017-09-25T14:28:50.503Z,23.38
2017-09-25T14:30:00.840Z,23.35
2017-09-25T14:31:11.228Z,23.38
2017-09-25T14:32:21.572Z,23.35
2017-09-25T14:33:31.605Z,23.4
2017-09-25T14:34:42.058Z,23.37
2017-09-25T14:35:52.420Z,23.44
2017-09-25T14:37:02.757Z,23.5
2017-09-25T14:38:12.826Z,23.48
2017-09-25T14:39:22.888Z,23.53
2017-09-25T14:40:33.297Z,23.45
2017-09-25T14:41:43.678Z,23.45
2017-09-25T14:42:53.373Z,23.34
2017-09-25T14:44:03.401Z,23.35
2017-09-25T14:45:13.745Z,23.45
2017-09-25T14:46:23.838Z,23.4
2017-09-25T14:47:34.187Z,23.38
2017-09-25T14:48:44.534Z,23.38
2017-09-25T14:49:54.573Z,23.37
2017-09-25T14:51:04.932Z,23.38
2017-09-25T14:52:15.337Z,23.28
2017-09-25T14:53:25.697Z,23.22
2017-09-25T14:54:36.047Z,23.24
2017-09-25T14:55:46.392Z,23.28
2017-09-25T14:56:56.757Z,23.24
2017-09-25T14:58:07.101Z,23.18
2017-09-25T14:59:17.462Z,23.15
2017-09-25T15:00:27.834Z,22.99
2017-09-25T15:01:38.203Z,22.91
2017-09-25T15:02:48.225Z,22.94
2017-09-25T15:03:58.263Z,23.03
2017-09-25T15:05:08.290Z,22.86
2017-09-25T15:06:18.332Z,22.89
2017-09-25T15:07:28.701Z,22.88
2017-09-25T15:08:39.072Z,22.79
2017-09-25T15:09:49.161Z,22.61
2017-09-25T15:10:59.211Z,22.7
2017-09-25T15:12:09.574Z,22.67
2017-09-25T15:13:19.615Z,22.69
2017-09-25T15:14:29.996Z,22.64
2017-09-25T15:15:40.397Z,22.48
2017-09-25T15:16:50.756Z,22.44
2017-09-25T15:18:01.115Z,22.42
2017-09-25T15:19:11.470Z,22.29
2017-09-25T15:20:21.515Z,22.16
2017-09-25T15:21:31.929Z,22.22
2017-09-25T15:22:42.285Z,22.24
2017-09-25T15:23:52.627Z,22.27
2017-09-25T15:25:02.658Z,22.27
2017-09-25T15:26:12.381Z,22.38
2017-09-25T15:27:22.802Z,22.24
2017-09-25T15:28:32.826Z,22.38
2017-09-25T15:29:42.865Z,22.27
2017-09-25T15:30:52.905Z,22.27
2017-09-25T15:32:03.243Z,22.23
2017-09-25T15:33:13.642Z,22.26
2017-09-25T15:34:24.019Z,22.33
2017-09-25T15:35:34.359Z,22.29
2017-09-25T15:36:44.620Z,22.3
2017-09-25T15:37:54.659Z,22.31
2017-09-25T15:39:04.743Z,22.41
2017-09-25T15:40:15.092Z,22.41
2017-09-25T15:41:25.446Z,22.38
2017-09-25T15:42:35.781Z,22.48
2017-09-25T15:43:46.128Z,22.36
2017-09-25T15:44:56.224Z,22.44